sensor_id;sensor_type;location;lat;lon;timestamp;P1;durP1;ratioP1;P2;durP2;ratioP2
21769;SDS011;11046;49.558;8.674;2023-02-17T00:01:31;18.30;;;9.27;;
21769;SDS011;11046;49.558;8.674;2023-02-17T00:04:32;16.63;;;9.70;;
21769;SDS011;11046;49.558;8.674;2023-02-17T00:07:33;14.73;;;9.50;;
21769;SDS011;11046;49.558;8.674;2023-02-17T00:10:34;14.87;;;9.10;;
21769;SDS011;11046;49.558;8.674;2023-02-17T00:13:35;14.37;;;9.30;;
21769;SDS011;11046;49.558;8.674;2023-02-17T00:16:35;18.43;;;9.87;;
21769;SDS011;11046;49.558;8.674;2023-02-17T00:19:36;17.97;;;9.07;;
21769;SDS011;11046;49.558;8.674;2023-02-17T00:22:36;19.30;;;8.90;;
21769;SDS011;11046;49.558;8.674;2023-02-17T00:25:37;14.73;;;8.53;;
21769;SDS011;11046;49.558;8.674;2023-02-17T00:28:39;15.90;;;8.23;;
21769;SDS011;11046;49.558;8.674;2023-02-17T00:31:40;16.77;;;8.63;;
21769;SDS011;11046;49.558;8.674;2023-02-17T00:34:40;18.80;;;10.10;;
21769;SDS011;11046;49.558;8.674;2023-02-17T00:37:41;15.90;;;8.37;;
21769;SDS011;11046;49.558;8.674;2023-02-17T00:40:44;15.03;;;8.40;;
21769;SDS011;11046;49.558;8.674;2023-02-17T00:43:45;16.60;;;9.40;;
21769;SDS011;11046;49.558;8.674;2023-02-17T00:46:48;17.07;;;8.33;;
21769;SDS011;11046;49.558;8.674;2023-02-17T00:49:49;16.40;;;9.20;;
21769;SDS011;11046;49.558;8.674;2023-02-17T00:52:50;15.63;;;8.40;;
21769;SDS011;11046;49.558;8.674;2023-02-17T00:55:50;15.33;;;8.30;;
21769;SDS011;11046;49.558;8.674;2023-02-17T00:58:51;18.20;;;8.63;;
21769;SDS011;11046;49.558;8.674;2023-02-17T01:01:52;17.30;;;8.63;;
21769;SDS011;11046;49.558;8.674;2023-02-17T01:04:52;14.20;;;8.20;;
21769;SDS011;11046;49.558;8.674;2023-02-17T01:07:54;15.77;;;8.50;;
21769;SDS011;11046;49.558;8.674;2023-02-17T01:10:55;16.83;;;8.73;;
21769;SDS011;11046;49.558;8.674;2023-02-17T01:14:01;16.67;;;9.13;;
21769;SDS011;11046;49.558;8.674;2023-02-17T01:17:06;14.50;;;7.87;;
21769;SDS011;11046;49.558;8.674;2023-02-17T01:20:07;14.70;;;8.33;;
21769;SDS011;11046;49.558;8.674;2023-02-17T01:23:09;13.07;;;8.60;;
21769;SDS011;11046;49.558;8.674;2023-02-17T01:26:15;16.47;;;8.07;;
21769;SDS011;11046;49.558;8.674;2023-02-17T01:29:17;14.63;;;8.13;;
21769;SDS011;11046;49.558;8.674;2023-02-17T01:32:18;16.10;;;7.83;;
21769;SDS011;11046;49.558;8.674;2023-02-17T01:35:23;13.50;;;7.67;;
21769;SDS011;11046;49.558;8.674;2023-02-17T01:38:30;13.27;;;7.80;;
21769;SDS011;11046;49.558;8.674;2023-02-17T01:41:36;13.37;;;7.20;;
21769;SDS011;11046;49.558;8.674;2023-02-17T01:48:21;13.47;;;7.27;;
21769;SDS011;11046;49.558;8.674;2023-02-17T01:51:32;12.50;;;7.33;;
21769;SDS011;11046;49.558;8.674;2023-02-17T01:54:56;13.07;;;7.90;;
21769;SDS011;11046;49.558;8.674;2023-02-17T01:58:01;15.33;;;7.47;;
21769;SDS011;11046;49.558;8.674;2023-02-17T02:01:04;17.70;;;8.30;;
21769;SDS011;11046;49.558;8.674;2023-02-17T02:04:05;14.97;;;8.50;;
21769;SDS011;11046;49.558;8.674;2023-02-17T02:07:09;16.33;;;7.73;;
21769;SDS011;11046;49.558;8.674;2023-02-17T02:10:18;16.17;;;8.77;;
21769;SDS011;11046;49.558;8.674;2023-02-17T02:13:19;14.37;;;7.63;;
21769;SDS011;11046;49.558;8.674;2023-02-17T02:16:23;17.67;;;8.07;;
21769;SDS011;11046;49.558;8.674;2023-02-17T02:19:39;16.57;;;8.30;;
21769;SDS011;11046;49.558;8.674;2023-02-17T02:29:56;13.63;;;7.67;;
21769;SDS011;11046;49.558;8.674;2023-02-17T02:33:10;13.67;;;7.90;;
21769;SDS011;11046;49.558;8.674;2023-02-17T02:36:32;18.03;;;8.67;;
21769;SDS011;11046;49.558;8.674;2023-02-17T02:39:39;13.57;;;7.63;;
21769;SDS011;11046;49.558;8.674;2023-02-17T02:42:45;13.50;;;7.43;;
21769;SDS011;11046;49.558;8.674;2023-02-17T02:45:47;14.70;;;8.60;;
21769;SDS011;11046;49.558;8.674;2023-02-17T02:48:50;15.30;;;7.83;;
21769;SDS011;11046;49.558;8.674;2023-02-17T02:55:16;19.57;;;7.93;;
21769;SDS011;11046;49.558;8.674;2023-02-17T02:58:36;14.83;;;8.33;;
21769;SDS011;11046;49.558;8.674;2023-02-17T03:08:47;15.73;;;7.87;;
21769;SDS011;11046;49.558;8.674;2023-02-17T03:12:02;17.67;;;7.67;;
21769;SDS011;11046;49.558;8.674;2023-02-17T03:15:22;13.93;;;7.37;;
21769;SDS011;11046;49.558;8.674;2023-02-17T03:18:27;15.53;;;7.47;;
21769;SDS011;11046;49.558;8.674;2023-02-17T03:21:33;16.17;;;7.80;;
21769;SDS011;11046;49.558;8.674;2023-02-17T03:24:46;18.63;;;7.97;;
21769;SDS011;11046;49.558;8.674;2023-02-17T03:27:47;13.17;;;7.60;;
21769;SDS011;11046;49.558;8.674;2023-02-17T03:30:48;15.20;;;8.20;;
21769;SDS011;11046;49.558;8.674;2023-02-17T03:33:49;17.73;;;8.07;;
21769;SDS011;11046;49.558;8.674;2023-02-17T03:36:53;12.67;;;7.20;;
21769;SDS011;11046;49.558;8.674;2023-02-17T03:39:57;14.17;;;7.43;;
21769;SDS011;11046;49.558;8.674;2023-02-17T03:42:58;15.30;;;7.40;;
21769;SDS011;11046;49.558;8.674;2023-02-17T03:46:01;16.57;;;7.97;;
21769;SDS011;11046;49.558;8.674;2023-02-17T03:49:02;14.27;;;7.43;;
21769;SDS011;11046;49.558;8.674;2023-02-17T03:52:06;15.20;;;7.50;;
21769;SDS011;11046;49.558;8.674;2023-02-17T03:55:06;17.10;;;7.13;;
21769;SDS011;11046;49.558;8.674;2023-02-17T03:58:07;14.83;;;7.67;;
21769;SDS011;11046;49.558;8.674;2023-02-17T04:01:09;16.00;;;7.60;;
21769;SDS011;11046;49.558;8.674;2023-02-17T04:04:11;13.60;;;7.37;;
21769;SDS011;11046;49.558;8.674;2023-02-17T04:07:11;15.17;;;7.50;;
21769;SDS011;11046;49.558;8.674;2023-02-17T04:10:12;15.93;;;7.20;;
21769;SDS011;11046;49.558;8.674;2023-02-17T04:13:16;17.33;;;7.27;;
21769;SDS011;11046;49.558;8.674;2023-02-17T04:16:20;15.37;;;7.00;;
21769;SDS011;11046;49.558;8.674;2023-02-17T04:19:23;13.07;;;7.33;;
21769;SDS011;11046;49.558;8.674;2023-02-17T04:22:25;15.73;;;6.57;;
21769;SDS011;11046;49.558;8.674;2023-02-17T04:25:26;16.33;;;7.57;;
21769;SDS011;11046;49.558;8.674;2023-02-17T04:28:26;16.27;;;7.13;;
21769;SDS011;11046;49.558;8.674;2023-02-17T04:31:30;16.57;;;6.93;;
21769;SDS011;11046;49.558;8.674;2023-02-17T04:34:31;13.90;;;7.70;;
21769;SDS011;11046;49.558;8.674;2023-02-17T04:37:32;16.23;;;7.27;;
21769;SDS011;11046;49.558;8.674;2023-02-17T04:40:33;14.97;;;7.53;;
21769;SDS011;11046;49.558;8.674;2023-02-17T04:43:34;13.50;;;7.50;;
21769;SDS011;11046;49.558;8.674;2023-02-17T04:46:35;12.03;;;6.87;;
21769;SDS011;11046;49.558;8.674;2023-02-17T04:49:36;13.67;;;7.47;;
21769;SDS011;11046;49.558;8.674;2023-02-17T04:52:36;17.20;;;7.70;;
21769;SDS011;11046;49.558;8.674;2023-02-17T04:55:37;13.13;;;7.23;;
21769;SDS011;11046;49.558;8.674;2023-02-17T04:58:38;16.47;;;7.97;;
21769;SDS011;11046;49.558;8.674;2023-02-17T05:01:39;16.53;;;7.90;;
21769;SDS011;11046;49.558;8.674;2023-02-17T05:04:39;17.17;;;7.67;;
21769;SDS011;11046;49.558;8.674;2023-02-17T05:07:43;15.50;;;7.20;;
21769;SDS011;11046;49.558;8.674;2023-02-17T05:10:45;16.73;;;7.37;;
21769;SDS011;11046;49.558;8.674;2023-02-17T05:13:46;13.30;;;7.33;;
21769;SDS011;11046;49.558;8.674;2023-02-17T05:16:49;14.13;;;7.20;;
21769;SDS011;11046;49.558;8.674;2023-02-17T05:19:50;12.63;;;7.70;;
21769;SDS011;11046;49.558;8.674;2023-02-17T05:22:53;12.67;;;7.17;;
21769;SDS011;11046;49.558;8.674;2023-02-17T05:25:56;17.13;;;7.23;;
21769;SDS011;11046;49.558;8.674;2023-02-17T05:29:00;15.33;;;6.43;;
21769;SDS011;11046;49.558;8.674;2023-02-17T05:32:07;15.57;;;7.47;;
21769;SDS011;11046;49.558;8.674;2023-02-17T05:35:08;16.47;;;7.13;;
21769;SDS011;11046;49.558;8.674;2023-02-17T05:38:09;14.47;;;7.07;;
21769;SDS011;11046;49.558;8.674;2023-02-17T05:41:10;13.53;;;7.90;;
21769;SDS011;11046;49.558;8.674;2023-02-17T05:44:13;13.80;;;7.67;;
21769;SDS011;11046;49.558;8.674;2023-02-17T05:47:14;12.53;;;7.10;;
21769;SDS011;11046;49.558;8.674;2023-02-17T05:50:15;11.50;;;7.13;;
21769;SDS011;11046;49.558;8.674;2023-02-17T05:53:16;11.90;;;6.97;;
21769;SDS011;11046;49.558;8.674;2023-02-17T05:56:17;13.00;;;7.50;;
21769;SDS011;11046;49.558;8.674;2023-02-17T05:59:20;16.53;;;7.50;;
21769;SDS011;11046;49.558;8.674;2023-02-17T06:02:21;12.30;;;6.53;;
21769;SDS011;11046;49.558;8.674;2023-02-17T06:05:22;12.60;;;6.53;;
21769;SDS011;11046;49.558;8.674;2023-02-17T06:08:23;14.60;;;6.57;;
21769;SDS011;11046;49.558;8.674;2023-02-17T06:11:24;13.27;;;7.00;;
21769;SDS011;11046;49.558;8.674;2023-02-17T06:14:25;14.63;;;7.03;;
21769;SDS011;11046;49.558;8.674;2023-02-17T06:17:26;13.57;;;6.97;;
21769;SDS011;11046;49.558;8.674;2023-02-17T06:20:35;16.50;;;8.17;;
21769;SDS011;11046;49.558;8.674;2023-02-17T06:23:39;16.37;;;7.00;;
21769;SDS011;11046;49.558;8.674;2023-02-17T06:26:42;12.70;;;7.20;;
21769;SDS011;11046;49.558;8.674;2023-02-17T06:29:43;13.60;;;7.40;;
21769;SDS011;11046;49.558;8.674;2023-02-17T06:32:44;17.00;;;7.50;;
21769;SDS011;11046;49.558;8.674;2023-02-17T06:35:49;16.70;;;7.37;;
21769;SDS011;11046;49.558;8.674;2023-02-17T06:38:50;15.70;;;8.70;;
21769;SDS011;11046;49.558;8.674;2023-02-17T06:41:51;13.40;;;7.33;;
21769;SDS011;11046;49.558;8.674;2023-02-17T06:44:52;13.37;;;6.90;;
21769;SDS011;11046;49.558;8.674;2023-02-17T06:47:56;13.67;;;7.93;;
21769;SDS011;11046;49.558;8.674;2023-02-17T06:50:56;17.53;;;7.37;;
21769;SDS011;11046;49.558;8.674;2023-02-17T06:53:58;13.90;;;7.57;;
21769;SDS011;11046;49.558;8.674;2023-02-17T06:57:01;12.90;;;7.20;;
21769;SDS011;11046;49.558;8.674;2023-02-17T07:00:03;14.67;;;7.77;;
21769;SDS011;11046;49.558;8.674;2023-02-17T07:03:04;19.37;;;8.23;;
21769;SDS011;11046;49.558;8.674;2023-02-17T07:06:05;12.50;;;6.80;;
21769;SDS011;11046;49.558;8.674;2023-02-17T07:09:09;12.67;;;6.40;;
21769;SDS011;11046;49.558;8.674;2023-02-17T07:12:13;12.47;;;6.97;;
21769;SDS011;11046;49.558;8.674;2023-02-17T07:15:14;14.17;;;7.50;;
21769;SDS011;11046;49.558;8.674;2023-02-17T07:18:15;17.30;;;7.47;;
21769;SDS011;11046;49.558;8.674;2023-02-17T07:21:16;12.63;;;6.80;;
21769;SDS011;11046;49.558;8.674;2023-02-17T07:24:27;13.63;;;7.20;;
21769;SDS011;11046;49.558;8.674;2023-02-17T07:27:28;12.13;;;7.27;;
21769;SDS011;11046;49.558;8.674;2023-02-17T07:30:38;16.03;;;7.33;;
21769;SDS011;11046;49.558;8.674;2023-02-17T07:33:39;14.90;;;7.27;;
21769;SDS011;11046;49.558;8.674;2023-02-17T07:36:47;12.90;;;6.73;;
21769;SDS011;11046;49.558;8.674;2023-02-17T07:39:48;12.77;;;6.70;;
21769;SDS011;11046;49.558;8.674;2023-02-17T07:42:49;14.97;;;7.60;;
21769;SDS011;11046;49.558;8.674;2023-02-17T07:45:52;15.53;;;7.00;;
21769;SDS011;11046;49.558;8.674;2023-02-17T07:48:58;14.37;;;7.40;;
21769;SDS011;11046;49.558;8.674;2023-02-17T07:52:00;10.10;;;6.03;;
21769;SDS011;11046;49.558;8.674;2023-02-17T07:55:03;12.07;;;6.70;;
21769;SDS011;11046;49.558;8.674;2023-02-17T07:58:06;12.83;;;6.70;;
21769;SDS011;11046;49.558;8.674;2023-02-17T08:01:08;9.73;;;6.60;;
21769;SDS011;11046;49.558;8.674;2023-02-17T08:04:17;12.73;;;6.83;;
21769;SDS011;11046;49.558;8.674;2023-02-17T08:07:21;12.07;;;6.70;;
21769;SDS011;11046;49.558;8.674;2023-02-17T08:10:22;12.13;;;7.03;;
21769;SDS011;11046;49.558;8.674;2023-02-17T08:13:41;12.07;;;6.13;;
21769;SDS011;11046;49.558;8.674;2023-02-17T08:16:46;12.33;;;6.90;;
21769;SDS011;11046;49.558;8.674;2023-02-17T08:19:47;11.20;;;6.93;;
21769;SDS011;11046;49.558;8.674;2023-02-17T08:22:52;14.57;;;6.33;;
21769;SDS011;11046;49.558;8.674;2023-02-17T08:25:57;9.00;;;6.00;;
21769;SDS011;11046;49.558;8.674;2023-02-17T08:28:58;12.97;;;6.10;;
21769;SDS011;11046;49.558;8.674;2023-02-17T08:31:59;11.63;;;5.97;;
21769;SDS011;11046;49.558;8.674;2023-02-17T08:35:00;11.60;;;5.93;;
21769;SDS011;11046;49.558;8.674;2023-02-17T08:38:01;10.70;;;6.50;;
21769;SDS011;11046;49.558;8.674;2023-02-17T08:41:15;11.87;;;6.50;;
21769;SDS011;11046;49.558;8.674;2023-02-17T08:44:22;16.30;;;7.67;;
21769;SDS011;11046;49.558;8.674;2023-02-17T08:47:23;16.33;;;6.80;;
21769;SDS011;11046;49.558;8.674;2023-02-17T08:50:25;11.77;;;5.77;;
21769;SDS011;11046;49.558;8.674;2023-02-17T08:53:28;11.03;;;6.30;;
21769;SDS011;11046;49.558;8.674;2023-02-17T08:56:29;10.00;;;5.87;;
21769;SDS011;11046;49.558;8.674;2023-02-17T08:59:30;15.80;;;6.60;;
21769;SDS011;11046;49.558;8.674;2023-02-17T09:02:36;11.77;;;6.20;;
21769;SDS011;11046;49.558;8.674;2023-02-17T09:05:37;11.00;;;5.53;;
21769;SDS011;11046;49.558;8.674;2023-02-17T09:08:38;13.83;;;6.00;;
21769;SDS011;11046;49.558;8.674;2023-02-17T09:11:40;8.63;;;5.63;;
21769;SDS011;11046;49.558;8.674;2023-02-17T09:14:43;9.17;;;5.60;;
21769;SDS011;11046;49.558;8.674;2023-02-17T09:17:44;10.53;;;5.03;;
21769;SDS011;11046;49.558;8.674;2023-02-17T09:20:45;11.70;;;5.57;;
21769;SDS011;11046;49.558;8.674;2023-02-17T09:23:49;15.67;;;6.30;;
21769;SDS011;11046;49.558;8.674;2023-02-17T09:26:50;9.73;;;5.27;;
21769;SDS011;11046;49.558;8.674;2023-02-17T09:29:51;8.83;;;5.57;;
21769;SDS011;11046;49.558;8.674;2023-02-17T09:32:54;9.07;;;5.10;;
21769;SDS011;11046;49.558;8.674;2023-02-17T09:35:55;12.90;;;5.73;;
21769;SDS011;11046;49.558;8.674;2023-02-17T09:39:05;8.67;;;5.67;;
21769;SDS011;11046;49.558;8.674;2023-02-17T09:42:09;10.63;;;4.90;;
21769;SDS011;11046;49.558;8.674;2023-02-17T09:45:19;8.33;;;5.53;;
21769;SDS011;11046;49.558;8.674;2023-02-17T09:48:26;11.27;;;5.23;;
21769;SDS011;11046;49.558;8.674;2023-02-17T09:51:35;9.10;;;5.30;;
21769;SDS011;11046;49.558;8.674;2023-02-17T09:54:48;9.13;;;5.67;;
21769;SDS011;11046;49.558;8.674;2023-02-17T09:58:06;9.90;;;5.60;;
21769;SDS011;11046;49.558;8.674;2023-02-17T10:01:23;7.87;;;4.83;;
21769;SDS011;11046;49.558;8.674;2023-02-17T10:04:31;9.50;;;5.80;;
21769;SDS011;11046;49.558;8.674;2023-02-17T10:11:09;9.50;;;5.13;;
21769;SDS011;11046;49.558;8.674;2023-02-17T10:20:32;10.33;;;5.60;;
21769;SDS011;11046;49.558;8.674;2023-02-17T10:23:41;7.37;;;5.30;;
21769;SDS011;11046;49.558;8.674;2023-02-17T10:26:47;9.93;;;5.93;;
21769;SDS011;11046;49.558;8.674;2023-02-17T10:30:03;8.63;;;5.83;;
21769;SDS011;11046;49.558;8.674;2023-02-17T10:36:55;7.40;;;4.90;;
21769;SDS011;11046;49.558;8.674;2023-02-17T10:40:00;9.47;;;5.20;;
21769;SDS011;11046;49.558;8.674;2023-02-17T10:43:03;13.63;;;5.50;;
21769;SDS011;11046;49.558;8.674;2023-02-17T10:46:07;8.03;;;4.87;;
21769;SDS011;11046;49.558;8.674;2023-02-17T10:49:15;10.60;;;5.53;;
21769;SDS011;11046;49.558;8.674;2023-02-17T10:52:36;10.97;;;5.83;;
21769;SDS011;11046;49.558;8.674;2023-02-17T10:55:40;9.47;;;5.77;;
21769;SDS011;11046;49.558;8.674;2023-02-17T10:58:57;7.80;;;5.20;;
21769;SDS011;11046;49.558;8.674;2023-02-17T11:05:23;8.33;;;4.97;;
21769;SDS011;11046;49.558;8.674;2023-02-17T11:11:34;9.53;;;5.27;;
21769;SDS011;11046;49.558;8.674;2023-02-17T11:14:36;10.47;;;5.60;;
21769;SDS011;11046;49.558;8.674;2023-02-17T11:17:38;10.27;;;5.13;;
21769;SDS011;11046;49.558;8.674;2023-02-17T11:20:40;8.30;;;5.13;;
21769;SDS011;11046;49.558;8.674;2023-02-17T11:23:48;6.93;;;4.97;;
21769;SDS011;11046;49.558;8.674;2023-02-17T11:26:58;8.37;;;5.23;;
21769;SDS011;11046;49.558;8.674;2023-02-17T11:30:12;7.13;;;5.13;;
21769;SDS011;11046;49.558;8.674;2023-02-17T11:33:18;8.43;;;4.67;;
21769;SDS011;11046;49.558;8.674;2023-02-17T11:36:29;8.37;;;4.67;;
21769;SDS011;11046;49.558;8.674;2023-02-17T11:39:30;7.67;;;4.80;;
21769;SDS011;11046;49.558;8.674;2023-02-17T11:42:37;6.53;;;4.67;;
21769;SDS011;11046;49.558;8.674;2023-02-17T11:52:20;6.80;;;4.40;;
21769;SDS011;11046;49.558;8.674;2023-02-17T11:55:41;9.20;;;5.43;;
21769;SDS011;11046;49.558;8.674;2023-02-17T12:15:53;6.33;;;4.07;;
21769;SDS011;11046;49.558;8.674;2023-02-17T12:25:23;4.20;;;2.90;;
21769;SDS011;11046;49.558;8.674;2023-02-17T12:32:12;4.80;;;3.23;;
21769;SDS011;11046;49.558;8.674;2023-02-17T12:35:22;6.87;;;3.73;;
21769;SDS011;11046;49.558;8.674;2023-02-17T12:38:34;5.20;;;2.93;;
21769;SDS011;11046;49.558;8.674;2023-02-17T12:41:42;6.73;;;3.70;;
21769;SDS011;11046;49.558;8.674;2023-02-17T12:44:55;5.43;;;3.50;;
21769;SDS011;11046;49.558;8.674;2023-02-17T12:48:03;6.37;;;3.30;;
21769;SDS011;11046;49.558;8.674;2023-02-17T12:54:41;5.97;;;3.87;;
21769;SDS011;11046;49.558;8.674;2023-02-17T12:57:54;5.77;;;3.20;;
21769;SDS011;11046;49.558;8.674;2023-02-17T13:01:12;6.53;;;3.13;;
21769;SDS011;11046;49.558;8.674;2023-02-17T13:04:18;7.27;;;4.60;;
21769;SDS011;11046;49.558;8.674;2023-02-17T13:10:45;5.80;;;3.83;;
21769;SDS011;11046;49.558;8.674;2023-02-17T13:13:46;4.50;;;3.30;;
21769;SDS011;11046;49.558;8.674;2023-02-17T13:16:47;4.17;;;2.93;;
21769;SDS011;11046;49.558;8.674;2023-02-17T13:19:59;3.87;;;2.40;;
21769;SDS011;11046;49.558;8.674;2023-02-17T13:23:13;3.50;;;2.73;;
21769;SDS011;11046;49.558;8.674;2023-02-17T13:26:27;2.83;;;2.37;;
21769;SDS011;11046;49.558;8.674;2023-02-17T13:29:35;5.43;;;2.43;;
21769;SDS011;11046;49.558;8.674;2023-02-17T13:32:37;3.33;;;2.50;;
21769;SDS011;11046;49.558;8.674;2023-02-17T13:35:37;3.43;;;2.60;;
21769;SDS011;11046;49.558;8.674;2023-02-17T13:38:38;3.37;;;2.67;;
21769;SDS011;11046;49.558;8.674;2023-02-17T13:41:46;5.10;;;2.80;;
21769;SDS011;11046;49.558;8.674;2023-02-17T13:44:47;11.97;;;5.43;;
21769;SDS011;11046;49.558;8.674;2023-02-17T13:47:51;12.73;;;5.33;;
21769;SDS011;11046;49.558;8.674;2023-02-17T13:53:55;10.10;;;3.90;;
21769;SDS011;11046;49.558;8.674;2023-02-17T13:56:56;8.33;;;4.47;;
21769;SDS011;11046;49.558;8.674;2023-02-17T14:03:20;6.17;;;3.53;;
21769;SDS011;11046;49.558;8.674;2023-02-17T14:06:26;5.63;;;3.43;;
21769;SDS011;11046;49.558;8.674;2023-02-17T14:09:31;4.33;;;3.00;;
21769;SDS011;11046;49.558;8.674;2023-02-17T14:12:33;4.73;;;3.20;;
21769;SDS011;11046;49.558;8.674;2023-02-17T14:15:34;5.10;;;3.20;;
21769;SDS011;11046;49.558;8.674;2023-02-17T14:18:36;4.63;;;3.10;;
21769;SDS011;11046;49.558;8.674;2023-02-17T14:21:39;6.70;;;3.83;;
21769;SDS011;11046;49.558;8.674;2023-02-17T14:28:02;4.50;;;3.33;;
21769;SDS011;11046;49.558;8.674;2023-02-17T14:31:16;6.83;;;4.50;;
21769;SDS011;11046;49.558;8.674;2023-02-17T14:37:22;5.90;;;3.73;;
21769;SDS011;11046;49.558;8.674;2023-02-17T14:40:24;10.60;;;3.80;;
21769;SDS011;11046;49.558;8.674;2023-02-17T14:43:24;4.83;;;3.67;;
21769;SDS011;11046;49.558;8.674;2023-02-17T14:46:26;5.87;;;3.70;;
21769;SDS011;11046;49.558;8.674;2023-02-17T14:49:27;6.67;;;4.47;;
21769;SDS011;11046;49.558;8.674;2023-02-17T14:52:27;8.20;;;4.00;;
21769;SDS011;11046;49.558;8.674;2023-02-17T14:55:32;7.13;;;3.70;;
21769;SDS011;11046;49.558;8.674;2023-02-17T14:58:38;6.43;;;3.60;;
21769;SDS011;11046;49.558;8.674;2023-02-17T15:01:38;8.60;;;3.90;;
21769;SDS011;11046;49.558;8.674;2023-02-17T15:04:39;7.73;;;4.30;;
21769;SDS011;11046;49.558;8.674;2023-02-17T15:07:40;5.77;;;3.73;;
21769;SDS011;11046;49.558;8.674;2023-02-17T15:10:41;5.70;;;3.43;;
21769;SDS011;11046;49.558;8.674;2023-02-17T15:13:42;7.93;;;4.80;;
21769;SDS011;11046;49.558;8.674;2023-02-17T15:16:43;7.83;;;4.50;;
21769;SDS011;11046;49.558;8.674;2023-02-17T15:19:45;5.93;;;3.87;;
21769;SDS011;11046;49.558;8.674;2023-02-17T15:22:45;6.73;;;4.47;;
21769;SDS011;11046;49.558;8.674;2023-02-17T15:25:46;11.30;;;5.10;;
21769;SDS011;11046;49.558;8.674;2023-02-17T15:28:47;7.93;;;4.87;;
21769;SDS011;11046;49.558;8.674;2023-02-17T15:31:49;8.63;;;5.23;;
21769;SDS011;11046;49.558;8.674;2023-02-17T15:34:52;9.40;;;4.50;;
21769;SDS011;11046;49.558;8.674;2023-02-17T15:37:52;6.30;;;4.30;;
21769;SDS011;11046;49.558;8.674;2023-02-17T15:40:55;9.57;;;5.60;;
21769;SDS011;11046;49.558;8.674;2023-02-17T15:43:57;9.13;;;5.00;;
21769;SDS011;11046;49.558;8.674;2023-02-17T15:47:00;9.90;;;5.83;;
21769;SDS011;11046;49.558;8.674;2023-02-17T15:50:01;10.20;;;5.73;;
21769;SDS011;11046;49.558;8.674;2023-02-17T15:53:02;11.23;;;6.30;;
21769;SDS011;11046;49.558;8.674;2023-02-17T15:56:08;13.33;;;6.60;;
21769;SDS011;11046;49.558;8.674;2023-02-17T15:59:15;9.60;;;5.50;;
21769;SDS011;11046;49.558;8.674;2023-02-17T16:02:20;12.17;;;6.10;;
21769;SDS011;11046;49.558;8.674;2023-02-17T16:05:23;10.13;;;6.10;;
21769;SDS011;11046;49.558;8.674;2023-02-17T16:08:26;9.57;;;5.77;;
21769;SDS011;11046;49.558;8.674;2023-02-17T16:11:27;10.27;;;6.10;;
21769;SDS011;11046;49.558;8.674;2023-02-17T16:17:34;12.53;;;6.57;;
21769;SDS011;11046;49.558;8.674;2023-02-17T16:20:35;9.03;;;6.30;;
21769;SDS011;11046;49.558;8.674;2023-02-17T16:23:37;11.07;;;7.37;;
21769;SDS011;11046;49.558;8.674;2023-02-17T16:26:38;11.10;;;6.90;;
21769;SDS011;11046;49.558;8.674;2023-02-17T16:29:43;10.20;;;6.77;;
21769;SDS011;11046;49.558;8.674;2023-02-17T16:32:45;12.23;;;6.33;;
21769;SDS011;11046;49.558;8.674;2023-02-17T16:35:48;12.93;;;7.20;;
21769;SDS011;11046;49.558;8.674;2023-02-17T16:38:50;13.17;;;6.47;;
21769;SDS011;11046;49.558;8.674;2023-02-17T16:41:52;9.80;;;6.30;;
21769;SDS011;11046;49.558;8.674;2023-02-17T16:44:54;10.13;;;6.53;;
21769;SDS011;11046;49.558;8.674;2023-02-17T16:47:56;10.87;;;6.83;;
21769;SDS011;11046;49.558;8.674;2023-02-17T16:50:59;16.47;;;7.27;;
21769;SDS011;11046;49.558;8.674;2023-02-17T16:54:00;11.30;;;7.20;;
21769;SDS011;11046;49.558;8.674;2023-02-17T16:57:02;9.97;;;6.50;;
21769;SDS011;11046;49.558;8.674;2023-02-17T17:00:04;12.20;;;7.57;;
21769;SDS011;11046;49.558;8.674;2023-02-17T17:03:06;13.97;;;8.00;;
21769;SDS011;11046;49.558;8.674;2023-02-17T17:06:14;16.03;;;7.90;;
21769;SDS011;11046;49.558;8.674;2023-02-17T17:09:20;13.17;;;7.87;;
21769;SDS011;11046;49.558;8.674;2023-02-17T17:12:24;10.23;;;6.73;;
21769;SDS011;11046;49.558;8.674;2023-02-17T17:15:25;13.17;;;7.63;;
21769;SDS011;11046;49.558;8.674;2023-02-17T17:18:27;11.87;;;7.50;;
21769;SDS011;11046;49.558;8.674;2023-02-17T17:21:29;13.33;;;7.60;;
21769;SDS011;11046;49.558;8.674;2023-02-17T17:24:30;12.73;;;7.57;;
21769;SDS011;11046;49.558;8.674;2023-02-17T17:27:33;11.57;;;8.13;;
21769;SDS011;11046;49.558;8.674;2023-02-17T17:30:35;14.67;;;7.57;;
21769;SDS011;11046;49.558;8.674;2023-02-17T17:33:37;14.47;;;8.00;;
21769;SDS011;11046;49.558;8.674;2023-02-17T17:36:43;12.63;;;8.47;;
21769;SDS011;11046;49.558;8.674;2023-02-17T17:39:45;14.50;;;8.20;;
21769;SDS011;11046;49.558;8.674;2023-02-17T17:42:46;13.53;;;9.07;;
21769;SDS011;11046;49.558;8.674;2023-02-17T17:45:47;12.80;;;8.30;;
21769;SDS011;11046;49.558;8.674;2023-02-17T17:48:50;12.67;;;7.60;;
21769;SDS011;11046;49.558;8.674;2023-02-17T17:51:52;10.93;;;6.80;;
21769;SDS011;11046;49.558;8.674;2023-02-17T17:54:53;14.50;;;6.80;;
21769;SDS011;11046;49.558;8.674;2023-02-17T17:57:54;11.13;;;7.80;;
21769;SDS011;11046;49.558;8.674;2023-02-17T18:00:55;13.50;;;7.10;;
21769;SDS011;11046;49.558;8.674;2023-02-17T18:03:59;13.90;;;7.37;;
21769;SDS011;11046;49.558;8.674;2023-02-17T18:07:00;13.83;;;7.77;;
21769;SDS011;11046;49.558;8.674;2023-02-17T18:10:03;11.50;;;7.30;;
21769;SDS011;11046;49.558;8.674;2023-02-17T18:13:06;14.73;;;6.90;;
21769;SDS011;11046;49.558;8.674;2023-02-17T18:16:08;14.70;;;6.83;;
21769;SDS011;11046;49.558;8.674;2023-02-17T18:19:09;11.63;;;7.10;;
21769;SDS011;11046;49.558;8.674;2023-02-17T18:22:13;10.33;;;6.93;;
21769;SDS011;11046;49.558;8.674;2023-02-17T18:25:15;13.60;;;7.17;;
21769;SDS011;11046;49.558;8.674;2023-02-17T18:28:18;13.80;;;7.00;;
21769;SDS011;11046;49.558;8.674;2023-02-17T18:31:19;10.93;;;7.00;;
21769;SDS011;11046;49.558;8.674;2023-02-17T18:34:23;14.20;;;7.27;;
21769;SDS011;11046;49.558;8.674;2023-02-17T18:37:25;10.57;;;6.70;;
21769;SDS011;11046;49.558;8.674;2023-02-17T18:40:26;12.17;;;7.30;;
21769;SDS011;11046;49.558;8.674;2023-02-17T18:43:31;12.70;;;7.67;;
21769;SDS011;11046;49.558;8.674;2023-02-17T18:46:32;11.77;;;7.80;;
21769;SDS011;11046;49.558;8.674;2023-02-17T18:49:34;19.03;;;10.10;;
21769;SDS011;11046;49.558;8.674;2023-02-17T18:52:36;31.50;;;16.10;;
21769;SDS011;11046;49.558;8.674;2023-02-17T18:55:38;16.40;;;10.13;;
21769;SDS011;11046;49.558;8.674;2023-02-17T18:58:39;14.23;;;9.10;;
21769;SDS011;11046;49.558;8.674;2023-02-17T19:01:41;13.70;;;8.27;;
21769;SDS011;11046;49.558;8.674;2023-02-17T19:04:44;11.77;;;7.83;;
21769;SDS011;11046;49.558;8.674;2023-02-17T19:07:45;11.73;;;7.50;;
21769;SDS011;11046;49.558;8.674;2023-02-17T19:10:46;9.93;;;6.77;;
21769;SDS011;11046;49.558;8.674;2023-02-17T19:13:48;10.33;;;7.03;;
21769;SDS011;11046;49.558;8.674;2023-02-17T19:16:50;12.43;;;6.73;;
21769;SDS011;11046;49.558;8.674;2023-02-17T19:19:53;12.60;;;6.90;;
21769;SDS011;11046;49.558;8.674;2023-02-17T19:22:54;11.77;;;7.23;;
21769;SDS011;11046;49.558;8.674;2023-02-17T19:25:56;12.03;;;7.13;;
21769;SDS011;11046;49.558;8.674;2023-02-17T19:28:57;11.17;;;7.40;;
21769;SDS011;11046;49.558;8.674;2023-02-17T19:31:59;10.03;;;6.50;;
21769;SDS011;11046;49.558;8.674;2023-02-17T19:35:03;11.30;;;7.20;;
21769;SDS011;11046;49.558;8.674;2023-02-17T19:38:05;9.63;;;6.13;;
21769;SDS011;11046;49.558;8.674;2023-02-17T19:41:08;13.07;;;6.33;;
21769;SDS011;11046;49.558;8.674;2023-02-17T19:44:10;12.27;;;6.40;;
21769;SDS011;11046;49.558;8.674;2023-02-17T19:47:16;12.70;;;6.67;;
21769;SDS011;11046;49.558;8.674;2023-02-17T19:50:18;9.47;;;6.37;;
21769;SDS011;11046;49.558;8.674;2023-02-17T19:53:19;8.90;;;5.80;;